createdAt,value
2023-11-29T00:02:56.657Z,7.57
2023-11-29T00:05:58.965Z,7.54
2023-11-29T00:09:01.233Z,7.57
2023-11-29T00:12:03.631Z,7.50
2023-11-29T00:15:06.681Z,7.36
2023-11-29T00:18:09.030Z,7.51
2023-11-29T00:21:11.981Z,7.34
2023-11-29T00:24:14.274Z,7.25
2023-11-29T00:27:17.561Z,7.25
2023-11-29T00:30:19.765Z,7.25
2023-11-29T00:33:22.197Z,7.37
2023-11-29T00:36:25.431Z,7.32
2023-11-29T00:39:27.670Z,7.30
2023-11-29T00:42:30.014Z,7.18
2023-11-29T00:45:32.205Z,7.27
2023-11-29T00:48:34.599Z,7.38
2023-11-29T00:51:36.854Z,7.26
2023-11-29T00:54:39.220Z,7.15
2023-11-29T00:57:41.454Z,7.18
2023-11-29T01:00:43.835Z,7.22
2023-11-29T01:03:46.146Z,7.08
2023-11-29T01:06:48.376Z,7.01
2023-11-29T01:09:50.626Z,7.09
2023-11-29T01:12:52.887Z,7.01
2023-11-29T01:15:55.101Z,7.24
2023-11-29T01:18:58.960Z,7.20
2023-11-29T01:22:01.813Z,7.17
2023-11-29T01:25:04.404Z,6.96
2023-11-29T01:28:09.563Z,6.97
2023-11-29T01:31:13.873Z,6.97
2023-11-29T01:34:16.224Z,6.97
2023-11-29T01:37:18.445Z,6.82
2023-11-29T01:40:21.326Z,6.93
2023-11-29T01:43:25.029Z,6.92
2023-11-29T01:46:29.806Z,6.73
2023-11-29T01:49:32.115Z,6.73
2023-11-29T01:52:35.544Z,6.66
2023-11-29T01:55:38.240Z,6.79
2023-11-29T01:58:40.457Z,6.72
2023-11-29T02:01:42.764Z,6.68
2023-11-29T02:04:45.806Z,6.54
2023-11-29T02:07:48.249Z,6.57
2023-11-29T02:10:51.822Z,6.53
2023-11-29T02:13:54.178Z,6.55
2023-11-29T02:16:56.394Z,6.55
2023-11-29T02:19:58.652Z,6.63
2023-11-29T02:23:17.619Z,6.64
2023-11-29T02:26:19.811Z,6.49
2023-11-29T02:29:22.276Z,6.42
2023-11-29T02:32:24.562Z,6.31
2023-11-29T02:35:26.880Z,6.33
2023-11-29T02:38:29.160Z,6.31
2023-11-29T02:41:31.356Z,6.36
2023-11-29T02:44:33.548Z,6.39
2023-11-29T02:47:35.894Z,6.23
2023-11-29T02:50:38.162Z,6.28
2023-11-29T02:53:40.495Z,6.32
2023-11-29T02:56:42.960Z,6.25
2023-11-29T02:59:47.069Z,6.19
2023-11-29T03:02:49.473Z,6.14
2023-11-29T03:05:51.868Z,6.12
2023-11-29T03:08:54.151Z,6.25
2023-11-29T03:11:56.334Z,6.17
2023-11-29T03:14:58.852Z,6.32
2023-11-29T03:18:01.170Z,6.25
2023-11-29T03:21:03.670Z,6.08
2023-11-29T03:24:06.322Z,6.14
2023-11-29T03:27:08.843Z,6.21
2023-11-29T03:30:11.753Z,6.10
2023-11-29T03:33:14.123Z,6.10
2023-11-29T03:36:17.123Z,6.34
2023-11-29T03:39:19.330Z,6.12
2023-11-29T03:42:21.526Z,6.24
2023-11-29T03:45:23.744Z,6.17
2023-11-29T03:48:25.939Z,6.00
2023-11-29T03:51:32.122Z,6.02
2023-11-29T03:54:40.542Z,5.89
2023-11-29T03:57:42.752Z,5.94
2023-11-29T04:00:44.961Z,5.95
2023-11-29T04:03:47.174Z,5.81
2023-11-29T04:06:49.862Z,6.01
2023-11-29T04:09:58.346Z,5.86
2023-11-29T04:13:07.551Z,6.03
2023-11-29T04:16:19.703Z,6.14
2023-11-29T04:19:21.940Z,6.08
2023-11-29T04:22:24.155Z,5.81
2023-11-29T04:25:26.313Z,6.04
2023-11-29T04:28:28.536Z,6.10
2023-11-29T04:31:31.410Z,6.15
2023-11-29T04:34:38.098Z,6.13
2023-11-29T04:37:47.361Z,6.10
2023-11-29T04:40:49.748Z,6.11
2023-11-29T04:43:52.150Z,5.94
2023-11-29T04:46:54.468Z,5.78
2023-11-29T04:49:56.896Z,5.71
2023-11-29T04:52:59.074Z,5.84
2023-11-29T04:56:01.290Z,5.80
2023-11-29T04:59:03.461Z,5.95
2023-11-29T05:02:06.314Z,5.99
2023-11-29T05:05:09.135Z,5.97
2023-11-29T05:08:11.362Z,5.89
2023-11-29T05:11:13.574Z,6.05
2023-11-29T05:14:17.092Z,6.07
2023-11-29T05:17:19.986Z,6.07
2023-11-29T05:20:22.795Z,6.11
2023-11-29T05:23:26.108Z,6.04
2023-11-29T05:26:28.380Z,6.04
2023-11-29T05:29:30.617Z,5.92
2023-11-29T05:32:33.326Z,6.11
2023-11-29T05:35:35.658Z,6.20
2023-11-29T05:38:37.866Z,6.09
2023-11-29T05:41:40.118Z,6.22
2023-11-29T05:44:42.360Z,6.11
2023-11-29T05:47:44.671Z,6.03
2023-11-29T05:50:46.949Z,6.03
2023-11-29T05:53:49.147Z,6.02
2023-11-29T05:56:51.368Z,5.94
2023-11-29T05:59:56.696Z,6.00
2023-11-29T06:03:00.908Z,5.94
2023-11-29T06:06:05.268Z,5.89
2023-11-29T06:09:09.298Z,5.96
2023-11-29T06:12:11.448Z,5.98
2023-11-29T06:15:14.212Z,5.93
2023-11-29T06:18:17.086Z,5.88
2023-11-29T06:21:19.502Z,5.95
2023-11-29T06:24:21.691Z,5.94
2023-11-29T06:27:23.899Z,5.97
2023-11-29T06:30:26.080Z,5.82
2023-11-29T06:33:28.342Z,5.90
2023-11-29T06:36:35.123Z,5.91
2023-11-29T06:39:38.953Z,5.85
2023-11-29T06:42:41.349Z,5.88
2023-11-29T06:45:43.568Z,5.84
2023-11-29T06:48:45.798Z,5.87
2023-11-29T06:51:47.987Z,5.83
2023-11-29T06:54:50.261Z,6.02
2023-11-29T06:57:54.737Z,6.11
2023-11-29T07:00:57.343Z,6.04
2023-11-29T07:03:59.708Z,6.11
2023-11-29T07:07:02.173Z,6.17
2023-11-29T07:10:06.506Z,6.33
2023-11-29T07:13:08.884Z,6.29
2023-11-29T07:16:11.309Z,6.38
2023-11-29T07:19:14.580Z,6.36
2023-11-29T07:22:17.116Z,6.48
2023-11-29T07:25:19.250Z,6.36
2023-11-29T07:28:21.478Z,6.30
2023-11-29T07:31:24.476Z,6.36
2023-11-29T07:34:26.702Z,6.38
2023-11-29T07:37:28.913Z,6.36
2023-11-29T07:40:31.206Z,6.41
2023-11-29T07:43:33.401Z,6.50
2023-11-29T07:46:35.622Z,6.48
2023-11-29T07:49:37.958Z,6.49
2023-11-29T07:52:43.367Z,6.58
2023-11-29T07:55:45.769Z,6.54
2023-11-29T07:58:47.967Z,6.59
2023-11-29T08:01:50.325Z,6.58
2023-11-29T08:04:52.703Z,6.62
2023-11-29T08:07:56.479Z,6.50
2023-11-29T08:10:58.642Z,6.58
2023-11-29T08:14:04.082Z,6.66
2023-11-29T08:17:06.317Z,6.58
2023-11-29T08:20:08.984Z,6.65
2023-11-29T08:23:11.264Z,6.73
2023-11-29T08:26:13.664Z,6.73
2023-11-29T08:29:15.852Z,6.71
2023-11-29T08:32:18.163Z,6.75
2023-11-29T08:35:20.445Z,6.67
2023-11-29T08:38:22.751Z,6.70
2023-11-29T08:41:25.018Z,6.73
2023-11-29T08:44:27.269Z,6.78
2023-11-29T08:47:29.624Z,6.94
2023-11-29T08:50:31.922Z,7.03
2023-11-29T08:53:40.548Z,6.99
2023-11-29T08:56:45.454Z,6.94
2023-11-29T08:59:47.766Z,6.89
2023-11-29T09:02:50.312Z,6.94
2023-11-29T09:05:52.996Z,6.99
2023-11-29T09:08:59.937Z,7.24
2023-11-29T09:12:02.281Z,7.19
2023-11-29T09:15:07.029Z,7.12
2023-11-29T09:18:09.319Z,7.10
2023-11-29T09:21:11.820Z,7.08
2023-11-29T09:24:14.071Z,6.94
2023-11-29T09:27:16.244Z,6.89
2023-11-29T09:30:18.601Z,6.69
2023-11-29T09:33:22.584Z,6.75
2023-11-29T09:36:24.918Z,6.82
2023-11-29T09:39:29.368Z,7.05
2023-11-29T09:42:32.159Z,7.10
2023-11-29T09:45:34.492Z,7.04
2023-11-29T09:48:37.129Z,6.99
2023-11-29T09:51:39.461Z,7.06
2023-11-29T09:54:41.890Z,7.30
2023-11-29T09:57:45.281Z,7.35
2023-11-29T10:00:47.561Z,7.38
2023-11-29T10:04:01.792Z,7.39
2023-11-29T10:07:04.258Z,7.44
2023-11-29T10:10:08.125Z,7.28
2023-11-29T10:13:10.303Z,7.18
2023-11-29T10:16:12.581Z,7.05
2023-11-29T10:19:15.562Z,7.05
2023-11-29T10:22:18.090Z,7.18
2023-11-29T10:25:22.110Z,7.16
2023-11-29T10:28:24.554Z,7.16
2023-11-29T10:31:28.033Z,7.29
2023-11-29T10:34:33.669Z,7.40
2023-11-29T10:37:36.205Z,7.58
2023-11-29T10:40:40.165Z,7.75
2023-11-29T10:43:44.161Z,7.74
2023-11-29T10:46:47.135Z,7.76
2023-11-29T10:49:54.331Z,7.82
2023-11-29T10:52:56.603Z,7.79
2023-11-29T10:55:59.286Z,7.84
2023-11-29T10:59:23.582Z,8.00
2023-11-29T11:02:29.414Z,8.11
2023-11-29T11:05:31.915Z,8.05
2023-11-29T11:08:37.428Z,8.22
2023-11-29T11:11:47.549Z,8.29
2023-11-29T11:14:52.536Z,8.29
2023-11-29T11:18:07.837Z,8.32
2023-11-29T11:21:17.667Z,8.47
2023-11-29T11:24:19.866Z,8.61
2023-11-29T11:27:40.140Z,8.61
2023-11-29T11:30:45.900Z,8.69
2023-11-29T11:33:54.275Z,8.82
2023-11-29T11:36:56.680Z,8.86
2023-11-29T11:39:58.982Z,9.02
2023-11-29T11:43:01.883Z,9.18
2023-11-29T11:46:04.380Z,9.09
2023-11-29T11:49:09.691Z,9.32
2023-11-29T11:52:11.991Z,9.44
2023-11-29T11:55:16.442Z,9.54
2023-11-29T11:58:20.296Z,9.69
2023-11-29T12:01:22.670Z,9.76
2023-11-29T12:04:25.048Z,9.79
2023-11-29T12:07:27.659Z,9.97
2023-11-29T12:10:32.417Z,9.99
2023-11-29T12:13:35.431Z,10.15
2023-11-29T12:16:37.626Z,10.19
2023-11-29T12:19:43.722Z,10.32
2023-11-29T12:22:47.029Z,10.31
2023-11-29T12:25:56.901Z,10.43
2023-11-29T12:29:00.357Z,10.32
2023-11-29T12:32:06.530Z,10.26
2023-11-29T12:35:09.781Z,10.14
2023-11-29T12:38:12.174Z,10.14
2023-11-29T12:41:14.440Z,10.20
2023-11-29T12:44:17.299Z,10.22
2023-11-29T12:47:28.523Z,10.34
2023-11-29T12:50:31.233Z,10.43
2023-11-29T12:53:33.866Z,10.46
2023-11-29T12:56:36.414Z,10.47
2023-11-29T12:59:39.901Z,10.38
2023-11-29T13:02:42.266Z,10.33
2023-11-29T13:05:44.616Z,10.32
2023-11-29T13:08:47.014Z,10.15
2023-11-29T13:11:49.207Z,10.24
2023-11-29T13:14:51.458Z,10.26
2023-11-29T13:17:53.786Z,10.34
2023-11-29T13:20:56.109Z,10.44
2023-11-29T13:23:58.468Z,10.50
2023-11-29T13:27:01.021Z,10.57
2023-11-29T13:30:04.172Z,10.63
2023-11-29T13:33:06.562Z,10.70
2023-11-29T13:36:09.318Z,10.74
2023-11-29T13:39:14.316Z,10.76
2023-11-29T13:42:16.465Z,10.81
2023-11-29T13:45:18.784Z,10.86
2023-11-29T13:48:22.004Z,10.91
2023-11-29T13:51:24.370Z,10.95
2023-11-29T13:54:26.600Z,11.01
2023-11-29T13:57:28.917Z,10.99
2023-11-29T14:00:31.085Z,10.94
2023-11-29T14:03:40.708Z,10.96
2023-11-29T14:06:44.285Z,10.89
2023-11-29T14:09:46.482Z,10.88
2023-11-29T14:12:48.728Z,10.89
2023-11-29T14:15:50.919Z,10.90
2023-11-29T14:18:53.052Z,10.84
2023-11-29T14:21:55.205Z,10.74
2023-11-29T14:24:57.565Z,10.76
2023-11-29T14:27:59.823Z,10.74
2023-11-29T14:31:03.458Z,10.59
2023-11-29T14:34:05.691Z,10.62
2023-11-29T14:37:07.856Z,10.35
2023-11-29T14:40:10.714Z,10.17
2023-11-29T14:43:12.968Z,10.04
2023-11-29T14:46:15.159Z,9.95
2023-11-29T14:49:23.859Z,9.81
2023-11-29T14:52:31.156Z,9.58
2023-11-29T14:55:33.351Z,9.49
2023-11-29T14:58:35.580Z,9.42
2023-11-29T15:01:38.404Z,9.22
2023-11-29T15:04:43.450Z,9.13
2023-11-29T15:07:45.738Z,9.07
2023-11-29T15:10:47.970Z,9.02
2023-11-29T15:13:51.327Z,8.84
2023-11-29T15:16:53.521Z,8.79
2023-11-29T15:19:55.691Z,8.77
2023-11-29T15:22:57.884Z,8.73
2023-11-29T15:26:00.079Z,8.76
2023-11-29T15:29:02.350Z,8.68
2023-11-29T15:32:04.732Z,8.65
2023-11-29T15:35:08.674Z,8.57
2023-11-29T15:38:11.172Z,8.47
2023-11-29T15:41:13.413Z,8.40
2023-11-29T15:44:15.641Z,8.33
2023-11-29T15:47:17.909Z,8.32
2023-11-29T15:50:20.161Z,8.31
2023-11-29T15:53:22.373Z,8.18
2023-11-29T15:56:24.512Z,8.13
2023-11-29T15:59:26.681Z,8.11
2023-11-29T16:02:29.871Z,8.00
2023-11-29T16:05:32.141Z,8.04
2023-11-29T16:08:34.409Z,8.03
2023-11-29T16:11:36.583Z,8.08
2023-11-29T16:14:39.388Z,8.02
2023-11-29T16:17:41.759Z,7.97
2023-11-29T16:20:44.145Z,7.92
2023-11-29T16:23:46.370Z,7.93
2023-11-29T16:26:50.147Z,7.92
2023-11-29T16:29:52.366Z,7.95
2023-11-29T16:32:54.874Z,7.89
2023-11-29T16:35:57.238Z,7.85
2023-11-29T16:38:59.476Z,7.80
2023-11-29T16:42:01.759Z,7.79
2023-11-29T16:45:04.273Z,7.73
2023-11-29T16:48:06.948Z,7.68
2023-11-29T16:51:10.222Z,7.64
2023-11-29T16:54:12.524Z,7.59
2023-11-29T16:57:14.730Z,7.53
2023-11-29T17:00:17.534Z,7.54
2023-11-29T17:03:19.939Z,7.58
2023-11-29T17:06:22.584Z,7.55
2023-11-29T17:09:24.912Z,7.52
2023-11-29T17:12:27.198Z,7.54
2023-11-29T17:15:29.477Z,7.43
2023-11-29T17:18:32.726Z,7.43
2023-11-29T17:21:35.935Z,7.40
2023-11-29T17:24:38.100Z,7.31
2023-11-29T17:27:40.379Z,7.30
2023-11-29T17:30:43.388Z,7.26
2023-11-29T17:33:45.887Z,7.32
2023-11-29T17:36:48.776Z,7.24
2023-11-29T17:39:50.939Z,7.16
2023-11-29T17:42:55.580Z,7.06
2023-11-29T17:45:57.879Z,7.05
2023-11-29T17:49:00.092Z,7.00
2023-11-29T17:52:02.382Z,7.04
2023-11-29T17:55:05.210Z,7.07
2023-11-29T17:58:09.059Z,7.01
2023-11-29T18:01:11.306Z,7.01
2023-11-29T18:04:13.639Z,6.97
2023-11-29T18:07:15.861Z,6.99
2023-11-29T18:10:18.053Z,6.95
2023-11-29T18:13:21.939Z,6.91
2023-11-29T18:16:25.835Z,6.84
2023-11-29T18:19:28.105Z,6.81
2023-11-29T18:22:30.779Z,6.79
2023-11-29T18:25:32.974Z,6.74
2023-11-29T18:28:35.245Z,6.77
2023-11-29T18:31:37.530Z,6.68
2023-11-29T18:34:40.111Z,6.66
2023-11-29T18:37:42.339Z,6.67
2023-11-29T18:40:46.071Z,6.65
2023-11-29T18:43:48.424Z,6.57
2023-11-29T18:46:50.683Z,6.58
2023-11-29T18:49:52.871Z,6.59
2023-11-29T18:52:55.598Z,6.58
2023-11-29T18:55:59.421Z,6.59
2023-11-29T18:59:01.703Z,6.62
2023-11-29T19:02:04.026Z,6.61
2023-11-29T19:05:07.008Z,6.53
2023-11-29T19:08:09.283Z,6.56
2023-11-29T19:11:13.298Z,6.52
2023-11-29T19:14:15.475Z,6.51
2023-11-29T19:17:17.761Z,6.41
2023-11-29T19:20:20.067Z,6.37
2023-11-29T19:23:31.455Z,6.34
2023-11-29T19:26:38.503Z,6.27
2023-11-29T19:29:41.042Z,6.24
2023-11-29T19:32:44.005Z,6.17
2023-11-29T19:35:46.252Z,6.17
2023-11-29T19:38:49.722Z,6.04
2023-11-29T19:41:52.062Z,5.97
2023-11-29T19:44:55.344Z,6.00
2023-11-29T19:47:57.651Z,5.94
2023-11-29T19:50:59.971Z,5.84
2023-11-29T19:54:02.285Z,5.82
2023-11-29T19:57:04.809Z,5.80
2023-11-29T20:00:07.576Z,5.76
2023-11-29T20:03:09.942Z,5.74
2023-11-29T20:06:12.352Z,5.70
2023-11-29T20:09:16.941Z,5.74
2023-11-29T20:12:19.901Z,5.67
2023-11-29T20:15:23.408Z,5.61
2023-11-29T20:18:27.909Z,5.62
2023-11-29T20:21:31.463Z,5.56
2023-11-29T20:24:33.951Z,5.58
2023-11-29T20:27:36.584Z,5.55
2023-11-29T20:30:38.770Z,5.46
2023-11-29T20:33:40.968Z,5.47
2023-11-29T20:36:43.138Z,5.48
2023-11-29T20:39:45.324Z,5.44
2023-11-29T20:42:47.548Z,5.36
2023-11-29T20:45:49.761Z,5.33
2023-11-29T20:48:52.086Z,5.36
2023-11-29T20:51:54.308Z,5.31
2023-11-29T20:54:56.537Z,5.28
2023-11-29T20:57:58.740Z,5.30
2023-11-29T21:01:01.078Z,5.32
2023-11-29T21:04:03.403Z,5.32
2023-11-29T21:07:06.175Z,5.29
2023-11-29T21:10:09.069Z,5.26
2023-11-29T21:13:12.752Z,5.26
2023-11-29T21:16:16.476Z,5.24
2023-11-29T21:19:18.813Z,5.22
2023-11-29T21:22:21.170Z,5.19
2023-11-29T21:25:23.315Z,5.17
2023-11-29T21:28:25.508Z,5.19
2023-11-29T21:31:28.899Z,5.16
2023-11-29T21:34:31.705Z,5.22
2023-11-29T21:37:33.909Z,5.16
2023-11-29T21:40:36.295Z,5.19
2023-11-29T21:43:38.504Z,5.17
2023-11-29T21:46:40.691Z,5.17
2023-11-29T21:49:42.838Z,5.09
2023-11-29T21:52:45.045Z,5.17
2023-11-29T21:55:47.287Z,5.16
2023-11-29T21:58:49.483Z,5.15
2023-11-29T22:01:53.438Z,5.15
2023-11-29T22:04:55.785Z,5.15
2023-11-29T22:07:57.926Z,5.19
2023-11-29T22:11:00.632Z,5.23
2023-11-29T22:14:02.839Z,5.22
2023-11-29T22:17:05.118Z,5.20
2023-11-29T22:20:08.930Z,5.21
2023-11-29T22:23:11.547Z,5.15
2023-11-29T22:26:13.760Z,5.16
2023-11-29T22:29:15.970Z,5.18
2023-11-29T22:32:18.164Z,5.14
2023-11-29T22:35:20.351Z,5.13
2023-11-29T22:38:22.574Z,5.15
2023-11-29T22:41:26.854Z,5.22
2023-11-29T22:44:29.061Z,5.22
2023-11-29T22:47:31.676Z,5.23
2023-11-29T22:50:38.461Z,5.24
2023-11-29T22:53:40.880Z,5.28
2023-11-29T22:56:43.164Z,5.24
2023-11-29T22:59:45.326Z,5.25
2023-11-29T23:02:47.770Z,5.38
2023-11-29T23:05:50.236Z,5.39
2023-11-29T23:08:52.496Z,5.44
2023-11-29T23:11:54.817Z,5.48
2023-11-29T23:14:57.026Z,5.37
2023-11-29T23:17:59.216Z,5.49
2023-11-29T23:21:01.432Z,5.47
2023-11-29T23:24:03.932Z,5.52
2023-11-29T23:27:06.213Z,5.50
2023-11-29T23:30:08.663Z,5.53
2023-11-29T23:33:10.948Z,5.52
2023-11-29T23:36:13.245Z,5.37
2023-11-29T23:39:15.499Z,5.42
2023-11-29T23:42:18.593Z,5.46
2023-11-29T23:45:20.867Z,5.45
2023-11-29T23:48:23.126Z,5.38
2023-11-29T23:51:25.434Z,5.32
2023-11-29T23:54:27.625Z,5.37
2023-11-29T23:57:29.857Z,5.39
